^^
Station Historical Data
Daily Summary for January 4, 2018 Units:  Metric    English   Both
« Previous Day
Next Day »
Daily Weekly Monthly Yearly Custom
  High: Low: Average:
Temperature: 40.2 °C 20.2 °C 31.4 °C
Dew Point: 6 °C -5 °C -0.9 °C
Humidity: 24% 6% 14%
Wind Speed: 24.1km/h 0km/h 6.1km/h
Wind Gust: 29km/h - -
Wind- - SW
Pressure: 1009.4 hPa 1003.6 hPa -
Precipitation: 0 mm    
Historical Graphs
 
 
Tabular Data for January 4, 2018
Time Temperature Dew Point Pressure Wind Wind Speed Wind Gust Humidity Rainfall Rate (Hourly) solar Conditions
00:06 28.9 °C -0.3 °C 1008.7 hPa WSW 11.1 km/h 16.1 km/h 15% 0 mm 0.0 W/m2
00:16 28.6 °C -0.6 °C 1008.7 hPa WSW 16.3 km/h 17.7 km/h 15% 0 mm 0.0 W/m2
00:21 28.6 °C -0.6 °C 1008.7 hPa SW 14.3 km/h 19.3 km/h 15% 0 mm 0.0 W/m2
00:36 28.4 °C -0.7 °C 1008.4 hPa SW 17.7 km/h 24.1 km/h 15% 0 mm 0.0 W/m2
00:41 28.4 °C -0.7 °C 1008.7 hPa SW 16.3 km/h 20.9 km/h 15% 0 mm 0.0 W/m2
00:46 28.4 °C -0.7 °C 1008.7 hPa SSW 24.1 km/h 24.1 km/h 15% 0 mm 0.0 W/m2
00:56 28.2 °C -0.9 °C 1008.4 hPa SSW 17.7 km/h 22.5 km/h 15% 0 mm 0.0 W/m2
01:06 28.2 °C -0.9 °C 1008.4 hPa SSW 16.3 km/h 22.5 km/h 15% 0 mm 0.0 W/m2
01:11 27.9 °C -1.1 °C 1008.4 hPa SSW 16.3 km/h 17.7 km/h 15% 0 mm 0.0 W/m2
01:21 27.6 °C -1.4 °C 1008.4 hPa SSW 13 km/h 17.7 km/h 15% 0 mm 0.0 W/m2
01:36 27.4 °C -0.6 °C 1008.4 hPa SSW 14.3 km/h 19.3 km/h 16% 0 mm 0.0 W/m2
01:46 27.1 °C -1.8 °C 1008.4 hPa SSW 13 km/h 14.5 km/h 15% 0 mm 0.0 W/m2
02:27 25.4 °C -1.4 °C 1008 hPa SSW 6.4 km/h 8 km/h 17% 0 mm 0.0 W/m2
02:37 25.3 °C -1.5 °C 1008 hPa SSW 4.7 km/h 8 km/h 17% 0 mm 0.0 W/m2
02:42 25.4 °C -1.4 °C 1008 hPa SSW 7.9 km/h 9.7 km/h 17% 0 mm 0.0 W/m2
02:52 25.4 °C -1.4 °C 1007.7 hPa SSW 11.1 km/h 12.9 km/h 17% 0 mm 0.0 W/m2
03:07 25.2 °C -1.6 °C 1007.7 hPa SSW 13 km/h 13 km/h 17% 0 mm 0.0 W/m2
03:18 24.8 °C -1.1 °C 1007.7 hPa SSW 9.7 km/h 12.9 km/h 18% 0 mm 0.0 W/m2
03:28 24.8 °C -1.1 °C 1007.7 hPa SSW 11.1 km/h 12.9 km/h 18% 0 mm 0.0 W/m2
03:43 24.9 °C -1.1 °C 1007.7 hPa Calm     18% 0 mm 0.0 W/m2
03:53 24.8 °C -1.1 °C 1007.7 hPa SSW 9.7 km/h 11.3 km/h 18% 0 mm 0.0 W/m2
03:58 24.6 °C -1.3 °C 1007.7 hPa SSW 7.9 km/h 11.3 km/h 18% 0 mm 0.0 W/m2
04:08 24.1 °C -1.7 °C 1007.7 hPa SSW 9.7 km/h 9.7 km/h 18% 0 mm 0.0 W/m2
04:14 24 °C -1.1 °C 1007.7 hPa SSW 9.7 km/h 9.7 km/h 19% 0 mm 0.0 W/m2
04:19 23.9 °C -1.1 °C 1007.7 hPa SSW 6.4 km/h 8 km/h 19% 0 mm 0.0 W/m2
04:29 23.3 °C -1.6 °C 1007.7 hPa SSW 1.4 km/h 4.8 km/h 19% 0 mm 0.0 W/m2
04:34 23 °C -1.9 °C 1007.7 hPa Calm     19% 0 mm 0.0 W/m2
04:39 22.7 °C -1.4 °C 1007.7 hPa Calm     20% 0 mm 0.0 W/m2
04:44 22.5 °C -1.6 °C 1007.7 hPa Calm     20% 0 mm 0.0 W/m2
04:49 22.1 °C -1.9 °C 1007.7 hPa Calm     20% 0 mm 0.0 W/m2
04:54 21.9 °C -2.1 °C 1007.7 hPa Calm     20% 0 mm 0.0 W/m2
04:59 21.8 °C -2.2 °C 1008 hPa Calm     20% 0 mm 0.0 W/m2
05:04 21.6 °C -1.7 °C 1008 hPa Calm     21% 0 mm 0.0 W/m2
05:09 21.3 °C -1.3 °C 1008 hPa Calm     22% 0 mm 0.0 W/m2
05:19 21.1 °C -1.5 °C 1008 hPa Calm     22% 0 mm 0.0 W/m2
05:25 20.9 °C -1 °C 1008 hPa Calm     23% 0 mm 0.0 W/m2
05:46 20.2 °C -1.6 °C 1008.4 hPa Calm     23% 0 mm 0.0 W/m2
05:57 20.3 °C -2.1 °C 1008.4 hPa Calm     22% 0 mm 0.0 W/m2
06:01 20.3 °C -1.5 °C 1008.4 hPa Calm     23% 0 mm 5.0 W/m2
06:06 20.2 °C -1.6 °C 1008.4 hPa Calm     23% 0 mm 7.0 W/m2
06:20 20.2 °C -1 °C 1008.4 hPa Calm     24% 0 mm 14.0 W/m2
06:37 21.3 °C -1.3 °C 1008.7 hPa Calm     22% 0 mm 56.0 W/m2
06:42 21.7 °C -1 °C 1008.7 hPa Calm     22% 0 mm 72.0 W/m2
06:58 22.1 °C -0.6 °C 1008.7 hPa Calm     22% 0 mm 109.0 W/m2
07:23 24.6 °C 0.1 °C 1009 hPa Calm     20% 0 mm 237.0 W/m2
07:34 25.4 °C 0.1 °C 1009 hPa Calm     19% 0 mm 278.0 W/m2
08:10 27.3 °C 0.1 °C 1009.4 hPa Calm     17% 0 mm 380.0 W/m2
08:35 28.7 °C -0.5 °C 1009.4 hPa SSW 7.9 km/h 11.3 km/h 15% 0 mm 485.0 W/m2
08:50 29.4 °C -0.9 °C 1009 hPa Calm   6.4 km/h 14% 0 mm 534.0 W/m2
09:06 30.2 °C -0.3 °C 1009 hPa Calm     14% 0 mm 587.0 W/m2
09:21 31.1 °C -0.6 °C 1009 hPa Calm     13% 0 mm 636.0 W/m2
09:34 31.9 °C -1 °C 1009 hPa Calm     12% 0 mm 670.0 W/m2
09:42 32.6 °C -0.5 °C 1009 hPa Calm     12% 0 mm 701.0 W/m2
09:55 33.2 °C 0 °C 1009 hPa Calm     12% 0 mm 728.0 W/m2
10:02 33.9 °C 0.5 °C 1009 hPa Calm     12% 0 mm 754.0 W/m2
10:17 34.7 °C 2.2 °C 1009 hPa NE 6.4 km/h 19.3 km/h 13% 0 mm 772.0 W/m2
10:32 34.5 °C 2.1 °C 1009 hPa NNE 7.9 km/h 11.3 km/h 13% 0 mm 809.0 W/m2
10:42 35.2 °C 2.6 °C 1009 hPa NNE 16.3 km/h 16.3 km/h 13% 0 mm 835.0 W/m2
11:02 35.3 °C 2.7 °C 1008.7 hPa North 1.4 km/h 19.3 km/h 13% 0 mm 881.0 W/m2
11:13 35.7 °C 3 °C 1008.7 hPa North 16.3 km/h 22.5 km/h 13% 0 mm 896.0 W/m2
11:23 36.1 °C 3.3 °C 1008.7 hPa NNW 17.7 km/h 29 km/h 13% 0 mm 923.0 W/m2
11:44 36.8 °C 4.9 °C 1008.7 hPa North 17.7 km/h 17.7 km/h 14% 0 mm 946.0 W/m2
12:00 37.1 °C 5.2 °C 1008.4 hPa North 17.7 km/h 29 km/h 14% 0 mm 962.0 W/m2
12:08 37.5 °C 4.4 °C 1008.4 hPa NNW 14.3 km/h 29 km/h 13% 0 mm 972.0 W/m2
12:23 37.8 °C 3.5 °C 1008 hPa NNW 17.7 km/h 24.1 km/h 12% 0 mm 984.0 W/m2
12:37 37.9 °C 2.4 °C 1008 hPa North 14.3 km/h 25.7 km/h 11% 0 mm 997.0 W/m2
12:47 38.1 °C 2.5 °C 1007.7 hPa Calm   20.9 km/h 11% 0 mm 993.0 W/m2
13:09 38.2 °C -0.2 °C 1007.3 hPa North 13 km/h 27.4 km/h 9% 0 mm 988.0 W/m2
13:24 38.9 °C -1.3 °C 1007.3 hPa Calm     8% 0 mm 988.0 W/m2
13:35 38.6 °C -1.5 °C 1007 hPa Calm   9.7 km/h 8% 0 mm 984.0 W/m2
13:49 39.2 °C 0.5 °C 1007 hPa NNE 1.4 km/h 8 km/h 9% 0 mm 972.0 W/m2
13:59 39.2 °C -1.1 °C 1007 hPa North 9.7 km/h 22.5 km/h 8% 0 mm 956.0 W/m2
14:15 39.5 °C -0.9 °C 1006.7 hPa North 6.4 km/h 14.5 km/h 8% 0 mm 939.0 W/m2
14:30 39.2 °C -1.1 °C 1006.3 hPa NNE 1.4 km/h 17.7 km/h 8% 0 mm 918.0 W/m2
14:45 39.8 °C -2.5 °C 1006.3 hPa North 6.4 km/h 17.7 km/h 7% 0 mm 888.0 W/m2
15:06 39.5 °C -4.7 °C 1006 hPa North 3.2 km/h 14.5 km/h 6% 0 mm 863.0 W/m2
15:16 39.9 °C -4.4 °C 1005.6 hPa North 13 km/h 14.5 km/h 6% 0 mm 830.0 W/m2
15:31 39.6 °C -4.7 °C 1005.3 hPa NNW 9.7 km/h 11.3 km/h 6% 0 mm 788.0 W/m2
15:46 39.9 °C -2.4 °C 1005.3 hPa NW 11.1 km/h 24.1 km/h 7% 0 mm 751.0 W/m2
16:01 40.2 °C -2.2 °C 1005.3 hPa NW 3.2 km/h 17.7 km/h 7% 0 mm 703.0 W/m2
16:16 39.9 °C -2.4 °C 1005 hPa NW 11.1 km/h 17.7 km/h 7% 0 mm 664.0 W/m2
16:31 39.8 °C -2.5 °C 1004.6 hPa NW 6.4 km/h 12.9 km/h 7% 0 mm 626.0 W/m2
16:46 39.8 °C -2.5 °C 1004.3 hPa NW 11.1 km/h 11.3 km/h 7% 0 mm 580.0 W/m2
17:01 39.6 °C -2.6 °C 1003.9 hPa West 7.9 km/h 9.7 km/h 7% 0 mm 531.0 W/m2
17:22 39.7 °C -2.5 °C 1003.9 hPa West 11.1 km/h 16.1 km/h 7% 0 mm 482.0 W/m2
17:32 39.6 °C -0.8 °C 1003.9 hPa West 3.2 km/h 9.7 km/h 8% 0 mm 425.0 W/m2
17:47 39.5 °C -0.9 °C 1003.6 hPa Calm   12.9 km/h 8% 0 mm 364.0 W/m2
18:02 39.7 °C -2.5 °C 1003.6 hPa West 4.7 km/h 11.3 km/h 7% 0 mm 313.0 W/m2
18:17 39.6 °C -2.6 °C 1003.6 hPa Calm     7% 0 mm 253.0 W/m2
18:33 39.9 °C -4.4 °C 1003.6 hPa Calm     6% 0 mm 192.0 W/m2
18:48 39.8 °C -4.5 °C 1003.6 hPa Calm     6% 0 mm 127.0 W/m2
18:58 39.4 °C -4.8 °C 1003.6 hPa West 1.4 km/h 1.6 km/h 6% 0 mm 65.0 W/m2
19:09 39.1 °C -5 °C 1003.6 hPa West 4.7 km/h 8 km/h 6% 0 mm 51.0 W/m2
19:25 38.7 °C -3.2 °C 1003.9 hPa Calm     7% 0 mm 18.0 W/m2
19:40 38.6 °C -3.3 °C 1003.9 hPa Calm     7% 0 mm 11.0 W/m2
19:56 38.1 °C -3.7 °C 1003.9 hPa Calm     7% 0 mm 0.0 W/m2
20:06 37.1 °C -2.6 °C 1003.9 hPa Calm     8% 0 mm 0.0 W/m2
20:16 36.4 °C -3.1 °C 1003.9 hPa Calm     8% 0 mm 0.0 W/m2
20:31 35.4 °C -3.9 °C 1004.3 hPa Calm     8% 0 mm 0.0 W/m2
20:47 34.6 °C -2.9 °C 1004.6 hPa Calm     9% 0 mm 0.0 W/m2
20:57 34.2 °C -1.8 °C 1004.6 hPa Calm     10% 0 mm 0.0 W/m2
21:12 34.7 °C -0.1 °C 1005.3 hPa Calm     11% 0 mm 0.0 W/m2
21:27 35.3 °C 0.4 °C 1005.6 hPa Calm     11% 0 mm 0.0 W/m2
21:37 36.3 °C 1.1 °C 1005.6 hPa West 11.1 km/h 11.3 km/h 11% 0 mm 0.0 W/m2
21:47 34.6 °C 6 °C 1006 hPa SW 22.7 km/h 27.4 km/h 17% 0 mm 0.0 W/m2
21:59 33.5 °C 5.9 °C 1006 hPa SSW 17.7 km/h 19.3 km/h 18% 0 mm 0.0 W/m2
Canyon Roadhouse, Fishriver Canyon, Namibia
Compliments of Weather Underground - 2.25 mb